sensor_id;sensor_type;location;lat;lon;timestamp;pressure;altitude;pressure_sealevel;temperature;humidity
31595;BME280;18200;48.726;8.892;2023-04-02T00:03:05;95955.97;;;21.84;35.00
31595;BME280;18200;48.726;8.892;2023-04-02T00:07:26;95957.84;;;21.96;34.62
31595;BME280;18200;48.726;8.892;2023-04-02T00:11:38;95958.56;;;21.66;34.70
31595;BME280;18200;48.726;8.892;2023-04-02T00:15:46;95960.28;;;21.50;34.90
31595;BME280;18200;48.726;8.892;2023-04-02T00:19:52;95959.69;;;20.78;36.69
31595;BME280;18200;48.726;8.892;2023-04-02T00:23:59;95972.28;;;19.46;39.27
31595;BME280;18200;48.726;8.892;2023-04-02T00:28:00;95972.44;;;20.81;36.87
31595;BME280;18200;48.726;8.892;2023-04-02T00:32:02;95972.81;;;20.58;36.93
31595;BME280;18200;48.726;8.892;2023-04-02T00:36:07;95961.59;;;20.90;36.17
31595;BME280;18200;48.726;8.892;2023-04-02T00:44:16;95969.69;;;21.49;35.00
31595;BME280;18200;48.726;8.892;2023-04-02T00:52:31;95976.69;;;21.50;34.91
31595;BME280;18200;48.726;8.892;2023-04-02T00:56:39;95972.50;;;21.37;35.92
31595;BME280;18200;48.726;8.892;2023-04-02T01:00:48;95971.22;;;21.50;35.29
31595;BME280;18200;48.726;8.892;2023-04-02T01:04:57;95975.53;;;21.60;35.32
31595;BME280;18200;48.726;8.892;2023-04-02T01:09:30;95986.59;;;21.35;35.39
31595;BME280;18200;48.726;8.892;2023-04-02T01:26:54;95986.09;;;21.49;35.79
31595;BME280;18200;48.726;8.892;2023-04-02T01:30:58;95984.44;;;21.95;34.90
31595;BME280;18200;48.726;8.892;2023-04-02T01:35:00;95994.69;;;22.13;34.93
31595;BME280;18200;48.726;8.892;2023-04-02T01:47:30;96000.00;;;22.38;34.13
31595;BME280;18200;48.726;8.892;2023-04-02T01:51:33;95998.69;;;21.90;34.88
31595;BME280;18200;48.726;8.892;2023-04-02T01:59:38;96004.66;;;21.98;34.60
31595;BME280;18200;48.726;8.892;2023-04-02T02:03:42;96009.50;;;21.94;34.61
31595;BME280;18200;48.726;8.892;2023-04-02T02:07:44;96011.75;;;22.17;34.45
31595;BME280;18200;48.726;8.892;2023-04-02T02:11:47;96014.97;;;21.94;34.40
31595;BME280;18200;48.726;8.892;2023-04-02T02:15:47;96013.00;;;22.25;34.39
31595;BME280;18200;48.726;8.892;2023-04-02T02:19:51;96017.44;;;22.01;34.62
31595;BME280;18200;48.726;8.892;2023-04-02T02:23:52;96014.44;;;22.08;34.21
31595;BME280;18200;48.726;8.892;2023-04-02T02:28:25;96029.56;;;22.21;34.25
31595;BME280;18200;48.726;8.892;2023-04-02T02:32:31;96031.13;;;22.01;34.66
31595;BME280;18200;48.726;8.892;2023-04-02T02:36:37;96040.50;;;22.21;34.60
31595;BME280;18200;48.726;8.892;2023-04-02T02:40:47;96035.03;;;22.52;34.06
31595;BME280;18200;48.726;8.892;2023-04-02T02:44:50;96036.84;;;22.46;34.02
31595;BME280;18200;48.726;8.892;2023-04-02T02:48:53;96038.91;;;22.33;34.23
31595;BME280;18200;48.726;8.892;2023-04-02T02:52:57;96038.38;;;22.56;33.83
31595;BME280;18200;48.726;8.892;2023-04-02T02:57:02;96042.94;;;22.50;34.31
31595;BME280;18200;48.726;8.892;2023-04-02T03:01:05;96048.50;;;22.37;34.24
31595;BME280;18200;48.726;8.892;2023-04-02T03:05:08;96050.19;;;22.75;34.25
31595;BME280;18200;48.726;8.892;2023-04-02T03:09:21;96047.16;;;22.51;34.39
31595;BME280;18200;48.726;8.892;2023-04-02T03:13:31;96058.38;;;21.48;35.64
31595;BME280;18200;48.726;8.892;2023-04-02T03:17:40;96067.88;;;22.83;33.85
31595;BME280;18200;48.726;8.892;2023-04-02T03:21:48;96070.19;;;23.02;33.42
31595;BME280;18200;48.726;8.892;2023-04-02T03:26:00;96069.47;;;23.02;33.52
31595;BME280;18200;48.726;8.892;2023-04-02T03:34:21;96077.16;;;22.85;33.99
31595;BME280;18200;48.726;8.892;2023-04-02T03:38:42;96084.44;;;22.79;33.77
31595;BME280;18200;48.726;8.892;2023-04-02T03:42:59;96092.63;;;22.18;35.78
31595;BME280;18200;48.726;8.892;2023-04-02T03:47:18;96094.34;;;21.47;36.72
31595;BME280;18200;48.726;8.892;2023-04-02T03:51:33;96093.81;;;21.39;36.48
31595;BME280;18200;48.726;8.892;2023-04-02T03:55:37;96098.03;;;22.09;35.81
31595;BME280;18200;48.726;8.892;2023-04-02T03:59:54;96105.91;;;22.50;35.11
31595;BME280;18200;48.726;8.892;2023-04-02T04:04:03;96099.94;;;22.73;34.72
31595;BME280;18200;48.726;8.892;2023-04-02T04:08:12;96117.31;;;22.79;34.51
31595;BME280;18200;48.726;8.892;2023-04-02T04:12:30;96109.69;;;22.74;34.33
31595;BME280;18200;48.726;8.892;2023-04-02T04:16:44;96110.22;;;22.60;34.75
31595;BME280;18200;48.726;8.892;2023-04-02T04:20:56;96110.94;;;22.82;34.07
31595;BME280;18200;48.726;8.892;2023-04-02T04:25:06;96127.59;;;22.45;34.81
31595;BME280;18200;48.726;8.892;2023-04-02T04:33:43;96137.84;;;22.53;34.06
31595;BME280;18200;48.726;8.892;2023-04-02T04:37:54;96142.06;;;22.45;34.75
31595;BME280;18200;48.726;8.892;2023-04-02T04:42:00;96148.69;;;22.35;35.20
31595;BME280;18200;48.726;8.892;2023-04-02T04:46:05;96141.88;;;22.39;34.37
31595;BME280;18200;48.726;8.892;2023-04-02T04:50:28;96154.03;;;22.17;34.75
31595;BME280;18200;48.726;8.892;2023-04-02T04:54:30;96158.00;;;22.59;34.45
31595;BME280;18200;48.726;8.892;2023-04-02T05:03:07;96175.28;;;22.56;34.37
31595;BME280;18200;48.726;8.892;2023-04-02T05:07:12;96170.44;;;22.17;34.76
31595;BME280;18200;48.726;8.892;2023-04-02T05:11:33;96170.44;;;22.38;34.32
31595;BME280;18200;48.726;8.892;2023-04-02T05:15:54;96169.25;;;22.39;34.37
31595;BME280;18200;48.726;8.892;2023-04-02T05:20:12;96179.06;;;21.94;34.62
31595;BME280;18200;48.726;8.892;2023-04-02T05:28:55;96190.72;;;21.73;35.57
31595;BME280;18200;48.726;8.892;2023-04-02T05:37:01;96193.91;;;22.61;33.44
31595;BME280;18200;48.726;8.892;2023-04-02T05:41:07;96206.84;;;22.05;34.54
31595;BME280;18200;48.726;8.892;2023-04-02T05:45:23;96200.19;;;22.71;33.37
31595;BME280;18200;48.726;8.892;2023-04-02T05:54:04;96207.81;;;23.06;33.56
31595;BME280;18200;48.726;8.892;2023-04-02T05:58:34;96201.50;;;23.19;33.26
31595;BME280;18200;48.726;8.892;2023-04-02T06:02:50;96214.59;;;23.14;32.70
31595;BME280;18200;48.726;8.892;2023-04-02T06:06:58;96219.50;;;23.29;32.76
31595;BME280;18200;48.726;8.892;2023-04-02T06:11:08;96228.72;;;23.13;32.97
31595;BME280;18200;48.726;8.892;2023-04-02T06:15:12;96232.00;;;23.30;33.06
31595;BME280;18200;48.726;8.892;2023-04-02T06:19:19;96241.00;;;22.99;32.94
31595;BME280;18200;48.726;8.892;2023-04-02T06:23:54;96243.72;;;23.30;32.36
31595;BME280;18200;48.726;8.892;2023-04-02T06:28:00;96242.31;;;23.26;32.17
31595;BME280;18200;48.726;8.892;2023-04-02T06:32:06;96255.50;;;23.09;33.06
31595;BME280;18200;48.726;8.892;2023-04-02T06:36:11;96266.28;;;23.03;33.11
31595;BME280;18200;48.726;8.892;2023-04-02T06:44:33;96270.81;;;22.97;33.15
31595;BME280;18200;48.726;8.892;2023-04-02T06:49:13;96277.38;;;23.31;32.30
31595;BME280;18200;48.726;8.892;2023-04-02T06:53:22;96281.53;;;22.61;34.83
31595;BME280;18200;48.726;8.892;2023-04-02T06:57:26;96293.25;;;22.83;33.80
31595;BME280;18200;48.726;8.892;2023-04-02T07:01:29;96295.34;;;22.45;34.37
31595;BME280;18200;48.726;8.892;2023-04-02T07:05:33;96304.13;;;21.43;36.67
31595;BME280;18200;48.726;8.892;2023-04-02T07:09:34;96311.69;;;20.56;37.42
31595;BME280;18200;48.726;8.892;2023-04-02T07:13:36;96321.72;;;19.82;38.89
31595;BME280;18200;48.726;8.892;2023-04-02T07:17:37;96312.16;;;22.90;33.74
31595;BME280;18200;48.726;8.892;2023-04-02T07:21:38;96326.09;;;22.15;34.85
31595;BME280;18200;48.726;8.892;2023-04-02T07:25:39;96325.47;;;21.60;35.87
31595;BME280;18200;48.726;8.892;2023-04-02T07:29:40;96330.28;;;20.45;37.75
31595;BME280;18200;48.726;8.892;2023-04-02T07:33:42;96337.78;;;20.86;37.59
31595;BME280;18200;48.726;8.892;2023-04-02T07:37:42;96345.03;;;22.56;34.48
31595;BME280;18200;48.726;8.892;2023-04-02T07:41:51;96345.59;;;23.29;33.65
31595;BME280;18200;48.726;8.892;2023-04-02T07:45:51;96352.25;;;23.19;34.04
31595;BME280;18200;48.726;8.892;2023-04-02T07:49:52;96355.53;;;23.97;32.34
31595;BME280;18200;48.726;8.892;2023-04-02T07:53:53;96366.59;;;23.23;33.53
31595;BME280;18200;48.726;8.892;2023-04-02T07:57:58;96377.22;;;22.77;35.23
31595;BME280;18200;48.726;8.892;2023-04-02T08:01:59;96379.38;;;23.26;33.93
31595;BME280;18200;48.726;8.892;2023-04-02T08:05:59;96387.91;;;23.28;33.83
31595;BME280;18200;48.726;8.892;2023-04-02T08:10:00;96384.47;;;23.58;33.52
31595;BME280;18200;48.726;8.892;2023-04-02T08:14:00;96398.63;;;22.91;34.10
31595;BME280;18200;48.726;8.892;2023-04-02T08:18:00;96403.69;;;23.14;34.22
31595;BME280;18200;48.726;8.892;2023-04-02T08:22:01;96407.53;;;21.86;36.06
31595;BME280;18200;48.726;8.892;2023-04-02T08:26:01;96408.97;;;21.90;36.34
31595;BME280;18200;48.726;8.892;2023-04-02T08:30:03;96405.75;;;23.75;32.91
31595;BME280;18200;48.726;8.892;2023-04-02T08:34:03;96421.56;;;23.06;33.87
31595;BME280;18200;48.726;8.892;2023-04-02T08:38:04;96437.94;;;22.63;34.59
31595;BME280;18200;48.726;8.892;2023-04-02T08:50:23;96434.44;;;22.97;33.23
31595;BME280;18200;48.726;8.892;2023-04-02T08:54:29;96432.63;;;24.11;32.04
31595;BME280;18200;48.726;8.892;2023-04-02T08:58:46;96446.31;;;24.42;31.21
31595;BME280;18200;48.726;8.892;2023-04-02T09:02:59;96449.88;;;24.12;32.07
31595;BME280;18200;48.726;8.892;2023-04-02T09:07:01;96465.09;;;23.82;32.06
31595;BME280;18200;48.726;8.892;2023-04-02T09:11:07;96463.06;;;24.84;30.88
31595;BME280;18200;48.726;8.892;2023-04-02T09:15:29;96459.94;;;24.54;31.35
31595;BME280;18200;48.726;8.892;2023-04-02T09:19:37;96467.66;;;24.78;31.14
31595;BME280;18200;48.726;8.892;2023-04-02T09:23:39;96476.38;;;22.47;34.84
31595;BME280;18200;48.726;8.892;2023-04-02T09:27:40;96479.13;;;23.41;33.59
31595;BME280;18200;48.726;8.892;2023-04-02T09:31:43;96485.94;;;24.01;32.25
31595;BME280;18200;48.726;8.892;2023-04-02T09:39:48;96494.00;;;24.26;31.78
31595;BME280;18200;48.726;8.892;2023-04-02T09:47:58;96511.81;;;23.91;31.44
31595;BME280;18200;48.726;8.892;2023-04-02T09:56:22;96514.09;;;25.03;30.58
31595;BME280;18200;48.726;8.892;2023-04-02T10:00:24;96520.22;;;24.18;31.91
31595;BME280;18200;48.726;8.892;2023-04-02T10:04:44;96524.53;;;23.07;34.01
31595;BME280;18200;48.726;8.892;2023-04-02T10:08:46;96531.88;;;24.31;31.96
31595;BME280;18200;48.726;8.892;2023-04-02T10:13:08;96543.19;;;23.47;32.62
31595;BME280;18200;48.726;8.892;2023-04-02T10:17:17;96544.53;;;23.42;33.60
31595;BME280;18200;48.726;8.892;2023-04-02T10:21:24;96547.06;;;23.24;33.84
31595;BME280;18200;48.726;8.892;2023-04-02T10:25:28;96557.50;;;23.17;32.75
31595;BME280;18200;48.726;8.892;2023-04-02T10:34:08;96564.09;;;22.31;34.80
31595;BME280;18200;48.726;8.892;2023-04-02T10:42:49;96568.94;;;22.77;33.87
31595;BME280;18200;48.726;8.892;2023-04-02T10:47:03;96573.88;;;22.57;34.46
31595;BME280;18200;48.726;8.892;2023-04-02T10:51:34;96574.16;;;23.09;33.86
31595;BME280;18200;48.726;8.892;2023-04-02T10:55:40;96588.09;;;22.39;35.52
31595;BME280;18200;48.726;8.892;2023-04-02T10:59:48;96594.66;;;21.11;37.97
31595;BME280;18200;48.726;8.892;2023-04-02T11:03:57;96595.31;;;21.47;37.56
31595;BME280;18200;48.726;8.892;2023-04-02T11:12:42;96607.41;;;22.20;36.82
31595;BME280;18200;48.726;8.892;2023-04-02T11:16:48;96610.09;;;21.95;37.70
31595;BME280;18200;48.726;8.892;2023-04-02T11:20:55;96608.41;;;21.69;38.42
31595;BME280;18200;48.726;8.892;2023-04-02T11:24:57;96618.25;;;21.05;38.79
31595;BME280;18200;48.726;8.892;2023-04-02T11:33:37;96622.81;;;22.55;36.57
31595;BME280;18200;48.726;8.892;2023-04-02T11:37:44;96627.91;;;22.94;35.06
31595;BME280;18200;48.726;8.892;2023-04-02T11:42:05;96635.53;;;23.50;34.59
31595;BME280;18200;48.726;8.892;2023-04-02T11:46:30;96635.28;;;23.57;33.68
31595;BME280;18200;48.726;8.892;2023-04-02T11:50:41;96636.47;;;24.46;32.61
31595;BME280;18200;48.726;8.892;2023-04-02T11:54:42;96648.06;;;23.85;33.27
31595;BME280;18200;48.726;8.892;2023-04-02T12:07:34;96652.47;;;24.47;31.48
31595;BME280;18200;48.726;8.892;2023-04-02T12:11:46;96650.84;;;23.60;32.29
31595;BME280;18200;48.726;8.892;2023-04-02T12:15:48;96657.59;;;24.36;31.59
31595;BME280;18200;48.726;8.892;2023-04-02T12:19:58;96657.25;;;22.81;32.95
31595;BME280;18200;48.726;8.892;2023-04-02T12:24:02;96660.22;;;23.84;32.30
31595;BME280;18200;48.726;8.892;2023-04-02T12:32:23;96654.81;;;24.27;31.95
31595;BME280;18200;48.726;8.892;2023-04-02T12:36:23;96654.66;;;25.54;29.82
31595;BME280;18200;48.726;8.892;2023-04-02T12:40:24;96666.97;;;24.91;30.35
31595;BME280;18200;48.726;8.892;2023-04-02T12:44:28;96659.31;;;26.29;28.56
31595;BME280;18200;48.726;8.892;2023-04-02T12:48:29;96663.66;;;25.45;28.57
31595;BME280;18200;48.726;8.892;2023-04-02T12:52:30;96675.22;;;24.48;30.03
31595;BME280;18200;48.726;8.892;2023-04-02T12:56:31;96676.34;;;25.43;28.88
31595;BME280;18200;48.726;8.892;2023-04-02T13:00:33;96675.78;;;25.17;29.55
31595;BME280;18200;48.726;8.892;2023-04-02T13:04:48;96684.66;;;23.57;31.82
31595;BME280;18200;48.726;8.892;2023-04-02T13:08:49;96687.53;;;23.15;32.71
31595;BME280;18200;48.726;8.892;2023-04-02T13:12:57;96692.34;;;23.11;33.86
31595;BME280;18200;48.726;8.892;2023-04-02T13:16:58;96695.06;;;22.61;35.94
31595;BME280;18200;48.726;8.892;2023-04-02T13:25:02;96703.44;;;22.54;35.66
31595;BME280;18200;48.726;8.892;2023-04-02T13:29:33;96701.88;;;22.12;36.42
31595;BME280;18200;48.726;8.892;2023-04-02T13:33:34;96699.59;;;23.05;35.19
31595;BME280;18200;48.726;8.892;2023-04-02T13:37:34;96696.72;;;23.59;34.32
31595;BME280;18200;48.726;8.892;2023-04-02T13:41:47;96691.16;;;24.53;33.18
31595;BME280;18200;48.726;8.892;2023-04-02T13:45:50;96698.34;;;24.16;33.44
31595;BME280;18200;48.726;8.892;2023-04-02T13:49:52;96706.16;;;23.21;34.38
31595;BME280;18200;48.726;8.892;2023-04-02T13:53:54;96710.09;;;23.20;35.08
31595;BME280;18200;48.726;8.892;2023-04-02T13:57:56;96713.59;;;22.82;34.99
31595;BME280;18200;48.726;8.892;2023-04-02T14:02:04;96724.41;;;23.40;34.35
31595;BME280;18200;48.726;8.892;2023-04-02T14:06:17;96730.72;;;22.29;37.64
31595;BME280;18200;48.726;8.892;2023-04-02T14:19:12;96753.88;;;22.12;39.21
31595;BME280;18200;48.726;8.892;2023-04-02T14:35:45;96782.44;;;20.91;41.00
31595;BME280;18200;48.726;8.892;2023-04-02T14:44:04;96778.16;;;21.78;39.11
31595;BME280;18200;48.726;8.892;2023-04-02T14:48:15;96787.91;;;20.05;42.98
31595;BME280;18200;48.726;8.892;2023-04-02T14:52:21;96791.19;;;19.97;42.55
31595;BME280;18200;48.726;8.892;2023-04-02T14:56:23;96783.69;;;22.51;38.52
31595;BME280;18200;48.726;8.892;2023-04-02T15:04:37;96798.81;;;20.91;40.96
31595;BME280;18200;48.726;8.892;2023-04-02T15:08:47;96801.41;;;20.12;43.65
31595;BME280;18200;48.726;8.892;2023-04-02T15:12:49;96800.59;;;21.17;40.74
31595;BME280;18200;48.726;8.892;2023-04-02T15:16:51;96805.38;;;19.85;42.90
31595;BME280;18200;48.726;8.892;2023-04-02T15:20:59;96809.38;;;21.09;40.75
31595;BME280;18200;48.726;8.892;2023-04-02T15:29:18;96826.47;;;21.13;40.58
31595;BME280;18200;48.726;8.892;2023-04-02T15:33:33;96826.09;;;20.05;41.80
31595;BME280;18200;48.726;8.892;2023-04-02T15:46:17;96847.25;;;19.48;42.51
31595;BME280;18200;48.726;8.892;2023-04-02T15:50:46;96846.53;;;20.83;40.00
31595;BME280;18200;48.726;8.892;2023-04-02T16:04:13;96863.41;;;20.12;41.51
31595;BME280;18200;48.726;8.892;2023-04-02T16:09:00;96880.19;;;19.57;43.24
31595;BME280;18200;48.726;8.892;2023-04-02T16:13:25;96879.09;;;20.04;42.45
31595;BME280;18200;48.726;8.892;2023-04-02T16:17:40;96891.31;;;18.31;45.15
31595;BME280;18200;48.726;8.892;2023-04-02T16:21:48;96897.97;;;18.68;44.74
31595;BME280;18200;48.726;8.892;2023-04-02T16:25:57;96894.59;;;20.11;42.45
31595;BME280;18200;48.726;8.892;2023-04-02T16:42:36;96921.06;;;18.90;43.09
31595;BME280;18200;48.726;8.892;2023-04-02T16:46:53;96929.34;;;19.80;41.36
31595;BME280;18200;48.726;8.892;2023-04-02T17:00:03;96950.63;;;17.92;44.50
31595;BME280;18200;48.726;8.892;2023-04-02T17:08:22;96958.56;;;18.75;42.50
31595;BME280;18200;48.726;8.892;2023-04-02T17:17:28;96976.56;;;19.40;40.57
31595;BME280;18200;48.726;8.892;2023-04-02T17:21:29;96985.84;;;19.46;40.91
31595;BME280;18200;48.726;8.892;2023-04-02T17:25:33;96991.19;;;18.79;41.66
31595;BME280;18200;48.726;8.892;2023-04-02T17:29:41;97009.44;;;18.82;41.35
31595;BME280;18200;48.726;8.892;2023-04-02T17:33:42;97012.94;;;19.60;40.08
31595;BME280;18200;48.726;8.892;2023-04-02T17:38:15;97013.69;;;18.86;41.15
31595;BME280;18200;48.726;8.892;2023-04-02T17:42:36;97020.56;;;18.98;40.81
31595;BME280;18200;48.726;8.892;2023-04-02T17:51:20;97034.72;;;17.20;44.34
31595;BME280;18200;48.726;8.892;2023-04-02T18:00:21;97064.56;;;18.34;42.41
31595;BME280;18200;48.726;8.892;2023-04-02T18:17:51;97096.78;;;16.54;43.83
31595;BME280;18200;48.726;8.892;2023-04-02T18:30:23;97118.75;;;18.01;40.85
31595;BME280;18200;48.726;8.892;2023-04-02T18:34:44;97132.28;;;18.11;40.04
31595;BME280;18200;48.726;8.892;2023-04-02T18:38:58;97143.72;;;17.50;41.14
31595;BME280;18200;48.726;8.892;2023-04-02T18:51:23;97155.72;;;17.10;42.11
31595;BME280;18200;48.726;8.892;2023-04-02T18:55:27;97172.91;;;18.61;39.49
31595;BME280;18200;48.726;8.892;2023-04-02T18:59:33;97181.28;;;17.94;39.80
31595;BME280;18200;48.726;8.892;2023-04-02T19:03:41;97197.97;;;16.83;41.62
31595;BME280;18200;48.726;8.892;2023-04-02T19:07:44;97208.00;;;18.20;38.81
31595;BME280;18200;48.726;8.892;2023-04-02T19:11:47;97217.38;;;15.99;43.70
31595;BME280;18200;48.726;8.892;2023-04-02T19:20:12;97231.44;;;16.22;42.50
31595;BME280;18200;48.726;8.892;2023-04-02T19:24:38;97250.22;;;14.66;44.30
31595;BME280;18200;48.726;8.892;2023-04-02T19:28:54;97249.94;;;16.92;40.35
31595;BME280;18200;48.726;8.892;2023-04-02T19:33:51;97260.81;;;16.16;41.46
31595;BME280;18200;48.726;8.892;2023-04-02T19:42:02;97280.19;;;15.20;43.15
31595;BME280;18200;48.726;8.892;2023-04-02T19:46:05;97286.69;;;16.68;39.82
31595;BME280;18200;48.726;8.892;2023-04-02T19:50:06;97290.75;;;16.38;39.94
31595;BME280;18200;48.726;8.892;2023-04-02T19:54:07;97296.88;;;16.96;38.87
31595;BME280;18200;48.726;8.892;2023-04-02T19:58:29;97301.88;;;16.83;38.92
31595;BME280;18200;48.726;8.892;2023-04-02T20:02:30;97317.13;;;15.42;41.37
31595;BME280;18200;48.726;8.892;2023-04-02T20:06:31;97330.06;;;15.19;40.86
31595;BME280;18200;48.726;8.892;2023-04-02T20:10:31;97331.78;;;15.38;40.43
31595;BME280;18200;48.726;8.892;2023-04-02T20:14:32;97331.22;;;16.57;37.87
31595;BME280;18200;48.726;8.892;2023-04-02T20:18:32;97341.16;;;15.88;38.35
31595;BME280;18200;48.726;8.892;2023-04-02T20:22:33;97338.06;;;14.46;41.03
31595;BME280;18200;48.726;8.892;2023-04-02T20:26:34;97345.53;;;15.56;39.13
31595;BME280;18200;48.726;8.892;2023-04-02T20:30:35;97345.06;;;15.13;40.18
31595;BME280;18200;48.726;8.892;2023-04-02T20:34:35;97351.63;;;15.45;38.88
31595;BME280;18200;48.726;8.892;2023-04-02T20:38:36;97362.91;;;15.95;38.15
31595;BME280;18200;48.726;8.892;2023-04-02T20:42:36;97365.59;;;14.55;41.41
31595;BME280;18200;48.726;8.892;2023-04-02T20:46:37;97380.00;;;14.92;40.41
31595;BME280;18200;48.726;8.892;2023-04-02T20:50:37;97373.28;;;14.27;41.18
31595;BME280;18200;48.726;8.892;2023-04-02T20:54:38;97379.44;;;15.83;38.10
31595;BME280;18200;48.726;8.892;2023-04-02T20:58:38;97380.22;;;13.79;41.69
31595;BME280;18200;48.726;8.892;2023-04-02T21:02:39;97388.03;;;14.89;39.65
31595;BME280;18200;48.726;8.892;2023-04-02T21:06:40;97390.94;;;16.13;37.55
31595;BME280;18200;48.726;8.892;2023-04-02T21:10:41;97397.69;;;14.56;40.17
31595;BME280;18200;48.726;8.892;2023-04-02T21:14:41;97400.31;;;14.53;40.18
31595;BME280;18200;48.726;8.892;2023-04-02T21:18:42;97395.88;;;14.97;39.30
31595;BME280;18200;48.726;8.892;2023-04-02T21:22:42;97396.13;;;15.18;37.79
31595;BME280;18200;48.726;8.892;2023-04-02T21:26:43;97400.53;;;14.41;38.78
31595;BME280;18200;48.726;8.892;2023-04-02T21:30:45;97402.88;;;14.98;38.35
31595;BME280;18200;48.726;8.892;2023-04-02T21:34:45;97409.91;;;15.06;37.97
31595;BME280;18200;48.726;8.892;2023-04-02T21:38:51;97420.81;;;16.20;35.75
31595;BME280;18200;48.726;8.892;2023-04-02T21:42:52;97430.06;;;14.08;39.46
31595;BME280;18200;48.726;8.892;2023-04-02T21:46:54;97427.38;;;13.85;39.78
31595;BME280;18200;48.726;8.892;2023-04-02T21:50:54;97427.00;;;14.54;38.84
31595;BME280;18200;48.726;8.892;2023-04-02T21:54:55;97422.81;;;14.87;36.67
31595;BME280;18200;48.726;8.892;2023-04-02T21:58:56;97425.09;;;15.14;36.38
31595;BME280;18200;48.726;8.892;2023-04-02T22:02:57;97429.09;;;14.94;36.91
31595;BME280;18200;48.726;8.892;2023-04-02T22:06:57;97436.69;;;15.44;36.88
31595;BME280;18200;48.726;8.892;2023-04-02T22:11:06;97443.97;;;15.07;37.25
31595;BME280;18200;48.726;8.892;2023-04-02T22:15:07;97429.28;;;14.52;37.45
31595;BME280;18200;48.726;8.892;2023-04-02T22:19:12;97441.19;;;14.74;37.53
31595;BME280;18200;48.726;8.892;2023-04-02T22:23:13;97441.78;;;14.60;37.19
31595;BME280;18200;48.726;8.892;2023-04-02T22:27:13;97438.03;;;15.98;35.21
31595;BME280;18200;48.726;8.892;2023-04-02T22:31:15;97436.81;;;14.92;35.90
31595;BME280;18200;48.726;8.892;2023-04-02T22:35:16;97434.38;;;16.20;34.56
31595;BME280;18200;48.726;8.892;2023-04-02T22:39:17;97446.09;;;16.31;33.67
31595;BME280;18200;48.726;8.892;2023-04-02T22:43:17;97435.47;;;13.62;39.25
31595;BME280;18200;48.726;8.892;2023-04-02T22:47:17;97439.72;;;16.13;34.45
31595;BME280;18200;48.726;8.892;2023-04-02T22:51:19;97432.34;;;16.57;33.87
31595;BME280;18200;48.726;8.892;2023-04-02T22:55:20;97434.22;;;15.66;35.06
31595;BME280;18200;48.726;8.892;2023-04-02T22:59:21;97432.31;;;16.50;34.02
31595;BME280;18200;48.726;8.892;2023-04-02T23:03:21;97426.38;;;16.95;33.39
31595;BME280;18200;48.726;8.892;2023-04-02T23:07:21;97438.69;;;14.62;36.60
31595;BME280;18200;48.726;8.892;2023-04-02T23:11:24;97435.97;;;16.28;34.04
31595;BME280;18200;48.726;8.892;2023-04-02T23:15:25;97439.22;;;15.60;35.30
31595;BME280;18200;48.726;8.892;2023-04-02T23:19:25;97440.13;;;16.15;34.49
31595;BME280;18200;48.726;8.892;2023-04-02T23:23:26;97437.47;;;16.22;34.06
31595;BME280;18200;48.726;8.892;2023-04-02T23:27:26;97439.19;;;16.44;34.41
31595;BME280;18200;48.726;8.892;2023-04-02T23:31:27;97439.94;;;15.94;34.55
31595;BME280;18200;48.726;8.892;2023-04-02T23:35:27;97450.81;;;15.61;36.26
31595;BME280;18200;48.726;8.892;2023-04-02T23:39:28;97438.81;;;14.69;37.19
31595;BME280;18200;48.726;8.892;2023-04-02T23:43:28;97438.59;;;15.74;35.07
31595;BME280;18200;48.726;8.892;2023-04-02T23:47:29;97443.03;;;15.56;35.58
31595;BME280;18200;48.726;8.892;2023-04-02T23:51:30;97434.47;;;15.20;34.86
31595;BME280;18200;48.726;8.892;2023-04-02T23:55:31;97432.72;;;16.52;34.22
31595;BME280;18200;48.726;8.892;2023-04-02T23:59:31;97432.06;;;16.25;34.13
